Time;durP1;ratioP1;P1;durP2;ratioP2;P2;SDS_P1;SDS_P2;PMS_P1;PMS_P2;Temp;Humidity;BMP_temperature;BMP_pressure;BME280_temperature;BME280_humidity;BME280_pressure;Samples;Min_cycle;Max_cycle;Signal;HPM_P1;HPM_P2
2024/01/17 00:01:31;;;;;;;6.47;4.40;;;;;;;17.28;26.31;99627.03;4231342;28;20502;-51
2024/01/17 00:03:33;;;;;;;5.70;3.83;;;;;;;17.26;26.27;99621.03;4229759;28;20450;-47
2024/01/17 00:05:35;;;;;;;7.10;4.38;;;;;;;17.23;26.26;99608.81;4231485;28;20066;-47
2024/01/17 00:07:37;;;;;;;5.72;3.70;;;;;;;17.23;26.37;99611.47;4231566;28;20503;-49
2024/01/17 00:09:39;;;;;;;;;;;;;;;17.28;26.23;99611.09;4231694;28;20096;-48
2024/01/17 00:11:42;;;;;;;6.27;4.23;;;;;;;17.28;26.21;99614.59;4231468;28;20398;-53
2024/01/17 00:13:43;;;;;;;5.82;4.05;;;;;;;17.32;26.16;99610.72;4231474;28;20551;-48
2024/01/17 00:15:45;;;;;;;6.88;4.10;;;;;;;17.32;26.33;99601.91;4231284;28;20044;-49
2024/01/17 00:17:47;;;;;;;7.18;4.57;;;;;;;17.36;26.34;99593.56;4231040;28;20067;-49
2024/01/17 00:19:49;;;;;;;5.82;3.90;;;;;;;17.34;26.34;99587.53;4230877;28;20039;-47
2024/01/17 00:21:51;;;;;;;7.10;4.45;;;;;;;17.33;26.13;99582.34;4231203;28;20101;-51
2024/01/17 00:23:53;;;;;;;5.82;3.95;;;;;;;17.30;26.49;99575.44;4231191;28;20063;-47
2024/01/17 00:25:54;;;;;;;6.85;3.72;;;;;;;17.28;26.13;99581.88;4231244;28;20053;-48
2024/01/17 00:27:56;;;;;;;6.25;4.10;;;;;;;17.27;26.45;99578.38;4231067;28;20064;-49
2024/01/17 00:29:58;;;;;;;6.30;3.70;;;;;;;17.28;26.43;99568.56;4231301;28;20070;-50
2024/01/17 00:32:01;;;;;;;6.00;4.05;;;;;;;17.30;26.77;99559.50;4230584;28;20055;-48
2024/01/17 00:34:02;;;;;;;5.75;3.85;;;;;;;17.33;26.49;99561.91;4231117;28;20498;-49
2024/01/17 00:36:05;;;;;;;6.53;4.25;;;;;;;17.36;26.22;99551.06;4230994;28;20043;-49
2024/01/17 00:38:06;;;;;;;6.40;4.28;;;;;;;17.36;26.27;99548.41;4231055;28;20125;-47
2024/01/17 00:40:09;;;;;;;6.15;4.20;;;;;;;17.29;26.39;99531.28;4230939;28;20098;-47
2024/01/17 00:42:11;;;;;;;6.72;4.57;;;;;;;17.35;26.45;99528.09;4230913;28;20055;-50
2024/01/17 00:44:16;;;;;;;5.95;3.75;;;;;;;17.35;26.46;99525.44;4230748;28;20089;-47
2024/01/17 00:46:18;;;;;;;6.45;4.35;;;;;;;17.33;26.43;99513.25;4230459;28;20043;-50
2024/01/17 00:48:20;;;;;;;6.78;4.35;;;;;;;17.30;26.49;99514.31;4230736;28;20078;-46
2024/01/17 00:50:22;;;;;;;6.70;4.32;;;;;;;17.30;26.67;99522.31;4230565;28;20074;-50
2024/01/17 00:52:24;;;;;;;6.38;4.35;;;;;;;17.29;26.43;99507.34;4230714;28;20090;-50
2024/01/17 00:54:26;;;;;;;;;;;;;;;17.30;26.61;99506.34;4231010;28;20075;-50
2024/01/17 00:56:27;;;;;;;7.70;4.38;;;;;;;17.30;26.63;99502.88;4230758;28;20413;-49
2024/01/17 00:58:29;;;;;;;7.13;4.32;;;;;;;17.36;26.48;99503.22;4230693;28;20514;-47
2024/01/17 01:00:31;;;;;;;6.63;4.50;;;;;;;17.38;26.49;99497.75;4230514;28;20055;-49
2024/01/17 01:02:32;;;;;;;6.70;4.60;;;;;;;17.39;26.66;99496.78;4230652;28;20047;-51
2024/01/17 01:04:34;;;;;;;6.68;4.65;;;;;;;17.39;26.55;99491.47;4230827;28;20124;-49
2024/01/17 01:06:36;;;;;;;6.32;4.38;;;;;;;17.37;26.59;99486.28;4230557;28;20040;-48
2024/01/17 01:08:37;;;;;;;7.05;4.45;;;;;;;17.36;26.78;99478.44;4230774;28;20047;-47
2024/01/17 01:10:39;;;;;;;6.78;4.70;;;;;;;17.36;26.86;99478.44;4230643;28;20052;-50
2024/01/17 01:12:41;;;;;;;;;;;;;;;17.33;26.61;99465.41;4231071;28;20071;-51
2024/01/17 01:14:42;;;;;;;8.65;4.70;;;;;;;17.30;26.77;99466.50;4230136;28;19920;-51
2024/01/17 01:16:44;;;;;;;6.20;4.28;;;;;;;17.33;26.55;99460.09;4230585;28;20067;-47
2024/01/17 01:18:45;;;;;;;6.82;4.55;;;;;;;17.33;26.93;99455.63;4230438;28;20044;-51
2024/01/17 01:20:47;;;;;;;6.78;4.30;;;;;;;17.35;26.76;99448.38;4230277;28;20054;-49
2024/01/17 01:22:49;;;;;;;6.80;4.20;;;;;;;17.36;26.75;99439.44;4230325;28;20047;-50
2024/01/17 01:24:50;;;;;;;7.28;4.85;;;;;;;17.35;27.02;99443.06;4230373;28;20425;-48
2024/01/17 01:26:52;;;;;;;6.55;4.45;;;;;;;17.36;26.90;99434.13;4230352;28;20061;-50
2024/01/17 01:28:54;;;;;;;6.55;4.68;;;;;;;17.36;26.92;99426.16;4229996;28;20054;-50
2024/01/17 01:30:55;;;;;;;6.68;4.40;;;;;;;17.36;27.19;99420.81;4231978;28;20074;-48
2024/01/17 01:32:57;;;;;;;6.20;4.45;;;;;;;17.31;27.05;99412.38;4233858;28;20583;-49
2024/01/17 01:34:58;;;;;;;7.90;4.93;;;;;;;17.30;27.08;99409.88;4234013;28;20043;-48
2024/01/17 01:37:00;;;;;;;7.50;4.45;;;;;;;17.29;27.14;99403.72;4234031;28;20498;-48
2024/01/17 01:39:02;;;;;;;6.30;4.25;;;;;;;17.29;27.06;99401.06;4232557;28;20406;-46
2024/01/17 01:41:04;;;;;;;6.10;4.35;;;;;;;17.32;27.09;99395.47;4233941;27;20044;-48
2024/01/17 01:43:23;;;;;;;6.97;4.75;;;;;;;17.35;27.24;99394.38;4233458;28;20162;-47
2024/01/17 01:45:24;;;;;;;7.55;4.68;;;;;;;17.35;27.27;99384.59;4233538;28;20516;-47
2024/01/17 01:47:27;;;;;;;7.70;5.05;;;;;;;17.38;27.16;99372.84;4233673;28;20551;-50
2024/01/17 01:49:29;;;;;;;6.78;5.00;;;;;;;17.39;27.18;99377.19;4233677;28;20043;-48
2024/01/17 01:51:31;;;;;;;6.43;4.60;;;;;;;17.38;27.25;99371.03;4233463;27;20043;-49
2024/01/17 01:53:33;;;;;;;6.78;4.55;;;;;;;17.37;27.31;99371.16;4233414;28;20048;-50
2024/01/17 01:55:35;;;;;;;6.85;4.68;;;;;;;17.34;27.41;99366.09;4233490;28;20042;-49
2024/01/17 01:57:39;;;;;;;6.32;4.28;;;;;;;17.33;27.31;99359.97;4232135;28;20142;-51
2024/01/17 01:59:41;;;;;;;6.97;5.13;;;;;;;17.32;27.48;99365.41;4233674;28;20051;-45
2024/01/17 02:01:43;;;;;;;6.85;4.72;;;;;;;17.33;27.22;99353.81;4233426;28;20043;-49
2024/01/17 02:03:46;;;;;;;6.65;4.63;;;;;;;17.33;27.25;99344.00;4233549;28;20047;-48
2024/01/17 02:05:48;;;;;;;7.70;4.90;;;;;;;17.35;27.30;99342.06;4232290;28;20075;-49
2024/01/17 02:07:50;;;;;;;7.88;5.03;;;;;;;17.36;27.39;99333.13;4233339;27;20112;-50
2024/01/17 02:09:52;;;;;;;6.93;4.47;;;;;;;17.38;27.27;99328.50;4233369;28;20067;-49
2024/01/17 02:11:54;;;;;;;6.75;4.68;;;;;;;17.37;27.42;99318.84;4233317;28;20120;-50
2024/01/17 02:13:57;;;;;;;7.22;4.72;;;;;;;17.40;27.42;99321.25;4232929;28;20108;-51
2024/01/17 02:16:00;;;;;;;7.20;4.50;;;;;;;17.41;27.54;99311.44;4233251;28;20094;-50
2024/01/17 02:18:03;;;;;;;6.70;4.85;;;;;;;17.39;27.52;99305.44;4233335;28;20134;-50
2024/01/17 02:20:06;;;;;;;6.88;4.63;;;;;;;17.37;27.46;99294.91;4233018;28;20058;-51
2024/01/17 02:22:07;;;;;;;6.68;4.70;;;;;;;17.33;27.58;99282.06;4233190;28;20441;-50
2024/01/17 02:24:16;;;;;;;6.72;4.72;;;;;;;17.36;27.50;99281.78;4233049;28;20043;-50
2024/01/17 02:26:18;;;;;;;6.18;4.60;;;;;;;17.35;27.51;99270.31;4233040;28;20047;-49
2024/01/17 02:28:21;;;;;;;7.15;4.95;;;;;;;17.37;27.56;99265.69;4232758;28;20052;-50
2024/01/17 02:30:22;;;;;;;6.63;4.70;;;;;;;17.37;27.65;99263.03;4233170;28;20066;-50
2024/01/17 02:32:25;;;;;;;6.50;4.15;;;;;;;17.35;27.49;99246.41;4233038;28;20043;-50
2024/01/17 02:34:27;;;;;;;7.63;4.97;;;;;;;17.38;27.77;99239.97;4232765;28;20055;-49
2024/01/17 02:36:28;;;;;;;8.13;4.70;;;;;;;17.37;27.56;99239.13;4233036;28;20070;-47
2024/01/17 02:38:30;;;;;;;7.05;5.00;;;;;;;17.35;27.85;99237.56;4233043;28;20040;-48
2024/01/17 02:40:32;;;;;;;7.53;5.13;;;;;;;17.30;27.85;99227.34;4232993;27;20044;-47
2024/01/17 02:42:33;;;;;;;6.60;5.13;;;;;;;17.30;27.81;99223.84;4232533;28;20057;-49
2024/01/17 02:44:35;;;;;;;7.68;4.90;;;;;;;17.28;28.00;99220.50;4232609;28;20119;-49
2024/01/17 02:46:37;;;;;;;6.45;4.45;;;;;;;17.30;27.67;99218.53;4232920;28;20123;-49
2024/01/17 02:48:38;;;;;;;7.40;5.15;;;;;;;17.22;27.84;99197.97;4232837;28;20047;-46
2024/01/17 02:50:40;;;;;;;6.10;4.60;;;;;;;17.32;27.80;99214.78;4232706;28;20089;-48
2024/01/17 02:52:42;;;;;;;6.53;4.70;;;;;;;17.35;27.65;99216.31;4232742;28;20043;-47
2024/01/17 02:54:43;;;;;;;7.05;5.00;;;;;;;17.34;27.90;99204.84;4232543;28;20042;-48
2024/01/17 02:56:45;;;;;;;7.35;5.13;;;;;;;17.38;27.73;99208.09;4232358;28;20039;-48
2024/01/17 02:58:47;;;;;;;6.75;4.65;;;;;;;17.41;27.71;99207.78;4232370;28;20059;-46
2024/01/17 03:00:48;;;;;;;6.90;4.88;;;;;;;17.42;27.73;99195.38;4232360;28;20048;-49
2024/01/17 03:02:50;;;;;;;6.82;4.80;;;;;;;17.39;27.79;99184.03;4232591;28;20039;-50
2024/01/17 03:04:51;;;;;;;7.43;4.78;;;;;;;17.39;27.88;99188.50;4232607;28;20063;-51
2024/01/17 03:06:53;;;;;;;6.90;4.93;;;;;;;17.36;27.97;99181.66;4232352;28;20490;-50
2024/01/17 03:08:55;;;;;;;7.03;5.00;;;;;;;17.36;27.97;99184.31;4232502;28;20051;-51
2024/01/17 03:10:57;;;;;;;6.80;4.93;;;;;;;17.37;27.85;99179.81;4232066;28;20485;-49
2024/01/17 03:12:58;;;;;;;6.63;4.88;;;;;;;17.38;27.97;99168.22;4232466;28;20421;-51
2024/01/17 03:15:00;;;;;;;6.60;4.63;;;;;;;17.40;28.10;99169.75;4232308;28;20474;-50
2024/01/17 03:17:02;;;;;;;6.43;4.35;;;;;;;17.42;28.08;99166.13;4232351;28;20048;-51
2024/01/17 03:19:04;;;;;;;6.60;4.55;;;;;;;17.46;28.06;99159.56;4232161;28;20145;-48
2024/01/17 03:21:06;;;;;;;6.50;4.70;;;;;;;17.45;28.05;99158.72;4232136;28;20039;-50
2024/01/17 03:23:08;;;;;;;;;;;;;;;17.45;27.81;99150.75;4232618;28;20043;-47
2024/01/17 03:25:09;;;;;;;7.13;4.80;;;;;;;17.40;28.15;99151.16;4231828;28;19935;-47
2024/01/17 03:27:13;;;;;;;7.07;4.95;;;;;;;17.40;27.91;99143.19;4232300;28;20055;-51
2024/01/17 03:29:14;;;;;;;7.03;4.82;;;;;;;17.40;28.13;99147.69;4232245;28;20581;-51
2024/01/17 03:31:16;;;;;;;7.05;4.95;;;;;;;17.38;28.05;99141.66;4231972;28;20143;-50
2024/01/17 03:33:18;;;;;;;7.32;5.00;;;;;;;17.38;28.55;99131.03;4231863;27;20043;-48
2024/01/17 03:35:19;;;;;;;;;;;;;;;17.37;28.16;99127.50;4232459;28;20059;-54
2024/01/17 03:37:22;;;;;;;6.57;4.40;;;;;;;17.35;28.17;99118.00;4230887;28;20305;-51
2024/01/17 03:39:24;;;;;;;7.32;4.75;;;;;;;17.39;28.30;99112.28;4231598;28;20043;-47
2024/01/17 03:41:25;;;;;;;6.50;4.88;;;;;;;17.42;28.34;99107.66;4231931;28;20048;-47
2024/01/17 03:43:27;;;;;;;6.63;4.78;;;;;;;17.43;28.20;99106.69;4231812;28;20052;-46
2024/01/17 03:45:29;;;;;;;7.60;5.22;;;;;;;17.42;28.13;99089.06;4231610;28;20047;-50
2024/01/17 03:47:31;;;;;;;7.75;5.22;;;;;;;17.38;28.07;99076.03;4231743;28;20442;-46
2024/01/17 03:49:33;;;;;;;7.60;5.10;;;;;;;17.37;28.16;99074.34;4231702;27;20464;-47
2024/01/17 03:51:35;;;;;;;6.95;4.90;;;;;;;17.32;28.14;99070.47;4231760;27;20506;-45
2024/01/17 03:53:37;;;;;;;7.53;5.45;;;;;;;17.32;28.51;99065.16;4230874;28;20048;-47
2024/01/17 03:55:39;;;;;;;7.00;5.00;;;;;;;17.29;28.43;99052.97;4231753;28;20615;-47
2024/01/17 03:57:40;;;;;;;6.88;5.05;;;;;;;17.31;28.58;99048.34;4231586;28;20050;-46
2024/01/17 03:59:43;;;;;;;7.10;4.88;;;;;;;17.33;28.58;99040.25;4231393;28;20055;-46
2024/01/17 04:01:46;;;;;;;8.02;5.03;;;;;;;17.36;28.22;99037.31;4231408;28;20445;-50
2024/01/17 04:03:49;;;;;;;7.40;5.15;;;;;;;17.28;28.25;99008.78;4231715;28;20044;-47
2024/01/17 04:05:50;;;;;;;7.55;5.45;;;;;;;17.38;28.25;99022.06;4231338;28;20098;-48
2024/01/17 04:07:52;;;;;;;6.82;5.13;;;;;;;17.36;28.41;99011.59;4231528;28;20047;-47
2024/01/17 04:09:53;;;;;;;7.90;5.13;;;;;;;17.35;28.28;99009.03;4231188;28;20048;-50
2024/01/17 04:11:55;;;;;;;6.63;4.60;;;;;;;17.30;28.27;99000.66;4230195;28;20047;-50
2024/01/17 04:13:57;;;;;;;8.60;5.65;;;;;;;17.28;28.61;99000.81;4231410;28;20049;-49
2024/01/17 04:15:59;;;;;;;7.82;5.43;;;;;;;17.26;28.26;98986.81;4231282;28;20042;-49
2024/01/17 04:18:01;;;;;;;7.32;4.90;;;;;;;17.24;28.68;98981.66;4231443;27;20109;-49
2024/01/17 04:20:04;;;;;;;7.72;5.57;;;;;;;17.26;28.50;98973.53;4231157;28;20127;-48
2024/01/17 04:22:05;;;;;;;7.35;5.32;;;;;;;17.28;28.39;98963.63;4231337;27;20050;-48
2024/01/17 04:24:07;;;;;;;8.18;4.97;;;;;;;17.28;28.61;98954.78;4230897;28;20506;-49
2024/01/17 04:26:17;;;;;;;;;;;;;;;17.31;28.65;98957.19;4231653;28;20483;-47
2024/01/17 04:28:18;;;;;;;8.18;4.97;;;;;;;17.31;28.42;98947.38;4231224;28;20356;-46
2024/01/17 04:30:20;;;;;;;7.20;5.15;;;;;;;17.33;28.44;98936.63;4230997;28;20142;-47
2024/01/17 04:32:22;;;;;;;6.32;4.70;;;;;;;17.31;28.43;98928.78;4230890;28;20487;-48
2024/01/17 04:34:23;;;;;;;7.03;4.82;;;;;;;17.30;28.57;98923.63;4231138;28;20460;-48
2024/01/17 04:36:28;;;;;;;7.68;5.28;;;;;;;17.27;28.66;98913.25;4230942;28;20065;-48
2024/01/17 04:38:30;;;;;;;7.32;5.28;;;;;;;17.24;28.55;98912.59;4230716;28;20044;-48
2024/01/17 04:40:32;;;;;;;7.35;5.25;;;;;;;17.22;28.58;98905.75;4230993;28;20051;-50
2024/01/17 04:42:33;;;;;;;7.15;5.30;;;;;;;17.23;28.73;98902.06;4230965;28;20047;-48
2024/01/17 04:44:35;;;;;;;7.53;4.95;;;;;;;17.24;28.84;98890.47;4231071;28;20414;-47
2024/01/17 04:46:37;;;;;;;6.63;4.65;;;;;;;17.26;28.77;98888.53;4230901;28;20100;-50
2024/01/17 04:48:40;;;;;;;7.28;5.10;;;;;;;17.28;28.70;98875.94;4230939;28;20406;-51
2024/01/17 04:50:43;;;;;;;7.57;5.00;;;;;;;17.32;28.78;98876.50;4230940;28;20130;-48
2024/01/17 04:52:45;;;;;;;7.00;5.05;;;;;;;17.31;28.77;98865.00;4230404;28;20432;-51
2024/01/17 04:54:48;;;;;;;7.47;5.35;;;;;;;17.33;28.53;98859.56;4230780;28;20604;-51
2024/01/17 04:56:50;;;;;;;6.60;4.50;;;;;;;17.30;28.65;98852.69;4230686;28;20058;-48
2024/01/17 04:58:52;;;;;;;7.63;4.93;;;;;;;17.27;28.78;98842.38;4230516;28;20079;-50
2024/01/17 05:00:54;;;;;;;6.90;5.00;;;;;;;17.26;28.83;98847.84;4230803;28;20300;-47
2024/01/17 05:02:56;;;;;;;7.13;5.20;;;;;;;17.20;28.88;98836.78;4230665;28;20043;-49
2024/01/17 05:04:58;;;;;;;7.18;5.07;;;;;;;17.20;28.86;98833.31;4229953;28;20453;-48
2024/01/17 05:07:00;;;;;;;6.90;5.28;;;;;;;17.17;28.95;98838.88;4230207;28;20047;-47
2024/01/17 05:09:03;;;;;;;6.72;4.55;;;;;;;17.21;28.89;98827.84;4230691;28;20122;-50
2024/01/17 05:11:05;;;;;;;7.35;5.07;;;;;;;17.24;28.84;98826.72;4230406;28;20039;-51
2024/01/17 05:13:07;;;;;;;7.80;4.93;;;;;;;17.27;28.40;98823.78;4230633;28;20071;-52
2024/01/17 05:15:08;;;;;;;7.32;5.13;;;;;;;17.29;28.77;98831.59;4230313;28;20043;-50
2024/01/17 05:17:10;;;;;;;7.10;5.03;;;;;;;17.32;28.64;98831.31;4230369;28;20054;-52
2024/01/17 05:19:12;;;;;;;6.93;5.10;;;;;;;17.33;28.78;98833.00;4229390;28;20040;-49
2024/01/17 05:21:18;;;;;;;7.32;4.82;;;;;;;17.32;28.78;98829.50;4229945;28;20503;-51
2024/01/17 05:23:20;;;;;;;7.03;4.72;;;;;;;17.30;28.78;98828.78;4230376;28;20048;-51
2024/01/17 05:25:21;;;;;;;6.22;4.43;;;;;;;17.30;28.78;98834.09;4230616;28;20046;-49
2024/01/17 05:27:23;;;;;;;6.90;4.68;;;;;;;17.29;28.89;98835.09;4230526;28;20040;-48
2024/01/17 05:29:24;;;;;;;7.45;5.00;;;;;;;17.30;28.78;98828.78;4230530;28;20044;-47
2024/01/17 05:31:26;;;;;;;7.00;4.75;;;;;;;17.29;28.77;98824.47;4230435;28;20047;-44
2024/01/17 05:33:28;;;;;;;7.78;4.55;;;;;;;17.34;28.77;98819.56;4230436;28;20052;-46
2024/01/17 05:35:30;;;;;;;7.60;4.65;;;;;;;17.38;28.93;98820.13;4230077;28;20039;-46
2024/01/17 05:37:32;;;;;;;7.57;4.95;;;;;;;17.40;28.80;98811.00;4230285;28;20039;-47
2024/01/17 05:39:33;;;;;;;6.88;4.40;;;;;;;17.42;28.92;98802.06;4230277;28;20047;-44
2024/01/17 05:41:36;;;;;;;6.70;4.38;;;;;;;17.40;28.72;98788.94;4230463;28;20043;-48
2024/01/17 05:43:42;;;;;;;6.45;4.38;;;;;;;17.39;28.74;98781.94;4230365;28;20067;-48
2024/01/17 05:45:50;;;;;;;5.82;4.03;;;;;;;17.32;28.81;98779.00;4230157;28;20556;-48
2024/01/17 05:47:52;;;;;;;6.43;4.47;;;;;;;17.34;28.81;98768.22;4230028;28;20051;-48
2024/01/17 05:49:53;;;;;;;6.85;4.38;;;;;;;17.32;29.01;98771.03;4230423;28;20047;-45
2024/01/17 05:51:55;;;;;;;6.78;4.30;;;;;;;17.30;28.91;98759.72;4230217;28;20075;-48
2024/01/17 05:53:58;;;;;;;;;;;;;;;17.29;29.02;98751.91;4230628;28;20044;-49
2024/01/17 05:55:59;;;;;;;6.45;4.28;;;;;;;17.26;29.10;98747.72;4230269;28;19926;-47
2024/01/17 05:58:04;;;;;;;6.95;4.70;;;;;;;17.31;29.14;98737.47;4229876;28;20067;-46
2024/01/17 06:00:12;;;;;;;6.40;4.30;;;;;;;17.34;29.25;98736.34;4230229;28;20071;-51
2024/01/17 06:02:14;;;;;;;5.88;4.18;;;;;;;17.33;28.90;98730.19;4229970;28;20564;-48
2024/01/17 06:04:16;;;;;;;;;;;;;;;17.31;29.16;98724.19;4230326;28;20078;-48
2024/01/17 06:06:18;;;;;;;6.28;4.18;;;;;;;17.31;29.01;98718.88;4230034;28;19919;-48
2024/01/17 06:08:20;;;;;;;6.20;4.30;;;;;;;17.30;29.32;98711.88;4230209;28;20070;-48
2024/01/17 06:10:23;;;;;;;6.63;4.20;;;;;;;17.28;29.26;98713.03;4229992;28;20051;-51
2024/01/17 06:12:25;;;;;;;6.30;4.10;;;;;;;17.27;29.24;98701.56;4229863;28;20089;-48
2024/01/17 06:14:27;;;;;;;5.80;4.10;;;;;;;17.26;29.23;98701.72;4230492;28;20294;-50
2024/01/17 06:16:29;;;;;;;7.65;4.50;;;;;;;17.23;29.14;98692.19;4230790;28;20074;-48
2024/01/17 06:18:30;;;;;;;6.13;4.07;;;;;;;17.25;29.50;98676.97;4233205;28;20052;-51
2024/01/17 06:20:32;;;;;;;6.32;4.40;;;;;;;17.26;29.37;98678.63;4232791;28;20101;-47
2024/01/17 06:22:34;;;;;;;5.88;3.97;;;;;;;17.25;29.39;98666.34;4233215;28;20047;-50
2024/01/17 06:24:36;;;;;;;6.75;4.10;;;;;;;17.29;29.05;98654.44;4232927;28;20054;-52
2024/01/17 06:26:37;;;;;;;6.55;4.00;;;;;;;17.29;29.09;98648.28;4233111;28;20052;-49
2024/01/17 06:28:39;;;;;;;5.53;4.05;;;;;;;17.25;29.25;98639.78;4233037;28;20063;-49
2024/01/17 06:30:40;;;;;;;5.97;3.97;;;;;;;17.27;29.37;98639.63;4233120;28;20052;-47
2024/01/17 06:32:42;;;;;;;5.38;3.78;;;;;;;17.25;29.24;98634.47;4232881;28;20057;-49
2024/01/17 06:34:44;;;;;;;5.97;3.80;;;;;;;17.22;29.22;98627.63;4232695;28;20051;-51
2024/01/17 06:36:46;;;;;;;6.30;3.92;;;;;;;17.20;29.14;98626.94;4232933;28;20043;-49
2024/01/17 06:38:47;;;;;;;5.50;3.85;;;;;;;17.24;29.33;98630.97;4232942;28;20525;-48
2024/01/17 06:40:50;;;;;;;5.45;3.72;;;;;;;17.27;29.34;98615.69;4233184;28;20047;-49
2024/01/17 06:42:56;;;;;;;6.13;3.78;;;;;;;17.27;29.31;98607.72;4232900;28;20410;-44
2024/01/17 06:44:58;;;;;;;5.57;3.60;;;;;;;17.28;29.37;98601.44;4232678;28;20050;-45
2024/01/17 06:47:00;;;;;;;;;;;;;;;17.28;29.50;98602.28;4233074;28;20047;-45
2024/01/17 06:49:02;;;;;;;7.53;4.07;;;;;;;17.28;29.39;98599.63;4232480;28;19927;-49
2024/01/17 06:51:04;;;;;;;;;;;;;;;17.26;29.25;98590.16;4231947;28;20562;-48
2024/01/17 06:53:06;;;;;;;6.10;3.70;;;;;;;17.21;29.41;98582.63;4232657;28;19920;-51
2024/01/17 06:55:07;;;;;;;6.53;3.67;;;;;;;17.20;29.51;98586.25;4232445;28;20074;-48
2024/01/17 06:57:14;;;;;;;5.55;3.60;;;;;;;17.17;29.70;98579.44;4232481;28;20527;-47
2024/01/17 06:59:18;;;;;;;5.72;3.75;;;;;;;17.16;29.68;98576.94;4232553;28;20135;-50
2024/01/17 07:01:20;;;;;;;6.00;3.70;;;;;;;17.12;29.62;98568.44;4232527;28;20039;-51
2024/01/17 07:03:22;;;;;;;5.93;3.97;;;;;;;17.11;29.69;98560.59;4232214;27;20072;-48
2024/01/17 07:05:24;;;;;;;6.53;3.88;;;;;;;17.12;29.68;98568.44;4232645;28;20542;-48
2024/01/17 07:07:25;;;;;;;6.03;3.63;;;;;;;17.18;29.68;98572.28;4231117;28;20063;-49
2024/01/17 07:09:27;;;;;;;5.90;3.72;;;;;;;17.21;29.67;98564.03;4232305;28;20051;-47
2024/01/17 07:11:29;;;;;;;5.82;3.60;;;;;;;17.23;29.67;98568.19;4232257;28;20464;-48
2024/01/17 07:13:30;;;;;;;5.25;3.60;;;;;;;17.24;29.79;98577.84;4232396;28;20101;-46
2024/01/17 07:15:32;;;;;;;5.60;3.20;;;;;;;17.24;29.58;98577.84;4232357;28;20150;-47
2024/01/17 07:17:34;;;;;;;5.45;3.25;;;;;;;17.26;29.43;98574.22;4232082;27;20051;-48
2024/01/17 07:19:36;;;;;;;5.50;3.60;;;;;;;17.23;29.64;98562.03;4232341;28;20064;-47
2024/01/17 07:21:39;;;;;;;6.50;3.70;;;;;;;17.20;29.73;98552.56;4232097;28;20047;-46
2024/01/17 07:23:42;;;;;;;6.03;3.38;;;;;;;17.20;29.88;98549.06;4232251;28;20059;-47
2024/01/17 07:25:44;;;;;;;5.25;3.30;;;;;;;17.20;29.81;98536.63;4231989;28;20130;-48
2024/01/17 07:27:46;;;;;;;5.93;3.35;;;;;;;17.19;29.61;98524.34;4231988;28;20131;-50
2024/01/17 07:29:48;;;;;;;6.93;3.67;;;;;;;17.21;29.84;98535.63;4231463;28;20047;-47
2024/01/17 07:31:50;;;;;;;7.50;3.42;;;;;;;17.20;29.58;98525.16;4231863;28;20044;-57
2024/01/17 07:33:57;;;;;;;4.82;3.15;;;;;;;17.22;29.75;98517.88;4231981;28;20054;-46
2024/01/17 07:35:58;;;;;;;5.93;3.22;;;;;;;17.20;29.79;98518.03;4230661;28;20067;-51
2024/01/17 07:38:02;;;;;;;5.40;3.13;;;;;;;17.17;29.81;98515.69;4231866;27;20422;-48
2024/01/17 07:40:04;;;;;;;5.03;3.30;;;;;;;17.17;29.94;98509.50;4231854;28;20494;-48
2024/01/17 07:42:06;;;;;;;7.32;3.17;;;;;;;17.13;29.71;98513.47;4230659;28;20494;-48
2024/01/17 07:44:08;;;;;;;5.88;3.65;;;;;;;17.11;29.85;98513.63;4231923;28;20481;-47
2024/01/17 07:46:12;;;;;;;5.28;2.83;;;;;;;17.09;29.99;98499.66;4231311;28;20126;-50
2024/01/17 07:48:14;;;;;;;4.72;2.90;;;;;;;17.11;29.83;98489.72;4231945;28;20100;-49
2024/01/17 07:50:16;;;;;;;6.28;3.22;;;;;;;17.15;29.76;98469.00;4231631;28;20043;-54
2024/01/17 07:52:18;;;;;;;5.22;3.10;;;;;;;17.14;29.79;98462.03;4231767;28;20509;-51
2024/01/17 07:54:20;;;;;;;5.43;3.30;;;;;;;17.14;29.84;98451.41;4231899;28;20078;-50
2024/01/17 07:56:21;;;;;;;5.57;3.08;;;;;;;17.13;29.93;98453.22;4231829;28;20051;-49
2024/01/17 07:58:23;;;;;;;5.55;3.10;;;;;;;17.15;30.08;98447.75;4231472;28;20079;-51
2024/01/17 08:00:25;;;;;;;4.65;2.80;;;;;;;17.16;30.15;98457.41;4231350;28;20040;-51
2024/01/17 08:02:26;;;;;;;;;;;;;;;17.16;30.07;98447.59;4231946;28;20108;-51
2024/01/17 08:04:28;;;;;;;4.97;2.70;;;;;;;17.13;30.15;98460.34;4231298;28;19920;-52
2024/01/17 08:06:30;;;;;;;4.28;2.65;;;;;;;17.15;29.58;98487.59;4231614;28;20040;-51
2024/01/17 08:08:32;;;;;;;4.03;2.55;;;;;;;17.16;30.10;98494.59;4231535;28;20477;-49
2024/01/17 08:10:33;;;;;;;4.35;2.58;;;;;;;17.15;30.28;98469.84;4230248;28;20551;-52
2024/01/17 08:12:35;;;;;;;4.95;2.95;;;;;;;17.20;29.88;98456.94;4231412;28;20414;-50
2024/01/17 08:14:37;;;;;;;4.78;2.42;;;;;;;17.19;29.99;98449.97;4231144;28;20062;-49
2024/01/17 08:16:38;;;;;;;5.30;2.80;;;;;;;17.20;29.88;98445.47;4231482;28;20118;-51
2024/01/17 08:18:40;;;;;;;4.90;2.78;;;;;;;17.22;29.92;98438.19;4231339;28;20044;-50
2024/01/17 08:20:43;;;;;;;4.50;2.67;;;;;;;17.21;30.17;98416.09;4231237;28;20159;-50
2024/01/17 08:22:45;;;;;;;4.93;2.60;;;;;;;17.24;30.04;98409.63;4231349;28;20078;-48
2024/01/17 08:24:46;;;;;;;5.13;2.70;;;;;;;17.22;29.88;98398.34;4231333;28;20047;-48
2024/01/17 08:26:48;;;;;;;5.32;2.30;;;;;;;17.18;29.92;98391.66;4231132;28;20075;-48
2024/01/17 08:28:49;;;;;;;3.90;2.28;;;;;;;17.15;30.21;98387.50;4231079;28;20050;-49
2024/01/17 08:30:51;;;;;;;3.90;2.33;;;;;;;17.13;30.00;98384.16;4230749;28;20130;-48
2024/01/17 08:32:53;;;;;;;4.45;2.40;;;;;;;17.13;30.09;98378.03;4231004;28;20403;-50
2024/01/17 08:34:55;;;;;;;4.40;2.38;;;;;;;17.15;30.16;98376.06;4231051;28;20047;-53
2024/01/17 08:36:58;;;;;;;5.70;2.65;;;;;;;17.16;30.19;98383.84;4231095;28;20422;-52
2024/01/17 08:39:00;;;;;;;3.35;2.00;;;;;;;17.17;30.29;98382.88;4231124;28;20040;-51
2024/01/17 08:41:01;;;;;;;;;;;;;;;17.17;30.18;98374.06;4231284;28;20097;-51
2024/01/17 08:43:04;;;;;;;3.90;2.28;;;;;;;17.15;30.28;98363.59;4231002;28;20315;-49
2024/01/17 08:45:06;;;;;;;3.97;2.30;;;;;;;17.20;30.11;98368.44;4230364;28;20465;-51
2024/01/17 08:47:08;;;;;;;4.40;2.22;;;;;;;17.20;30.29;98363.97;4231122;28;20055;-52
2024/01/17 08:49:10;;;;;;;4.40;2.42;;;;;;;17.19;30.05;98361.47;4230980;28;20071;-49
2024/01/17 08:51:12;;;;;;;4.40;2.35;;;;;;;17.15;30.13;98354.81;4231041;28;20070;-49
2024/01/17 08:53:15;;;;;;;4.32;2.40;;;;;;;17.15;30.36;98352.16;4231016;28;20071;-49
2024/01/17 08:55:16;;;;;;;5.07;2.40;;;;;;;17.11;30.42;98346.31;4230722;28;20078;-50
2024/01/17 08:57:18;;;;;;;4.75;2.50;;;;;;;17.13;30.50;98344.31;4231002;28;20424;-50
2024/01/17 08:59:20;;;;;;;3.90;2.10;;;;;;;17.16;30.52;98335.22;4228994;28;20080;-52
2024/01/17 09:01:21;;;;;;;3.78;2.22;;;;;;;17.21;30.44;98335.59;4230738;28;20047;-51
2024/01/17 09:03:29;;;;;;;5.35;2.28;;;;;;;17.24;30.39;98333.47;4228071;28;20104;-52
2024/01/17 09:05:31;;;;;;;4.38;2.00;;;;;;;17.27;30.21;98323.50;4222060;28;20043;-53
2024/01/17 09:07:33;;;;;;;5.20;2.08;;;;;;;17.31;30.39;98319.53;4217618;28;20109;-46
2024/01/17 09:09:35;;;;;;;7.55;2.60;;;;;;;17.23;31.87;98302.56;4217494;28;20080;-56
2024/01/17 09:11:37;;;;;;;5.82;2.20;;;;;;;17.34;31.08;98301.47;4229499;28;20054;-55
2024/01/17 09:13:38;;;;;;;5.50;2.20;;;;;;;17.38;30.90;98297.50;4224397;28;20047;-52
2024/01/17 09:15:40;;;;;;;4.90;2.03;;;;;;;17.46;31.52;98295.88;4230062;27;20114;-50
2024/01/17 09:17:42;;;;;;;8.43;2.20;;;;;;;17.56;31.90;98286.78;4230400;27;20081;-48
2024/01/17 09:19:46;;;;;;;6.88;2.20;;;;;;;17.71;31.26;98288.84;4243406;27;20051;-49
2024/01/17 09:21:53;;;;;;;8.15;2.63;;;;;;;17.82;32.33;98288.53;4231686;27;20517;-49
2024/01/17 09:23:55;;;;;;;4.07;1.88;;;;;;;17.79;30.74;98282.72;4229044;28;20043;-48
2024/01/17 09:25:57;;;;;;;4.47;2.05;;;;;;;17.79;30.82;98280.06;4239486;27;20059;-48
2024/01/17 09:28:02;;;;;;;10.45;2.50;;;;;;;17.96;31.33;98271.19;4224661;28;20054;-52
2024/01/17 09:30:04;;;;;;;10.90;2.85;;;;;;;17.99;30.85;98270.00;4229706;28;20050;-49
2024/01/17 09:32:06;;;;;;;14.10;2.63;;;;;;;18.08;31.87;98276.19;4229844;28;20509;-52
2024/01/17 09:34:07;;;;;;;16.25;3.05;;;;;;;18.15;33.16;98267.41;4226935;28;20151;-51
2024/01/17 09:36:09;;;;;;;13.55;2.65;;;;;;;18.27;32.05;98267.06;4228325;28;20066;-51
2024/01/17 09:38:12;;;;;;;17.73;2.67;;;;;;;18.21;32.46;98268.56;4227504;28;20075;-52